Time;durP1;ratioP1;P1;durP2;ratioP2;P2;SDS_P1;SDS_P2;PMS_P1;PMS_P2;Temp;Humidity;BMP_temperature;BMP_pressure;BME280_temperature;BME280_humidity;BME280_pressure;Samples;Min_cycle;Max_cycle;Signal;HPM_P1;HPM_P2
2022/03/20 00:01:21;;;;;;;;;;;;;;;;;;5014313;28;781;-67
2022/03/20 00:03:49;;;;;;;;;;;;;;;;;;5014566;28;1121;-67
2022/03/20 00:06:15;;;;;;;;;;;;;;;;;;5013948;28;1303;-67
2022/03/20 00:08:42;;;;;;;;;;;;;;;;;;5014434;28;1026;-67
2022/03/20 00:11:08;;;;;;;;;;;;;;;;;;5014057;28;1014;-67
2022/03/20 00:13:34;;;;;;;;;;;;;;;;;;5014290;28;1230;-67
2022/03/20 00:16:01;;;;;;;;;;;;;;;;;;5014225;28;1400;-67
2022/03/20 00:18:27;;;;;;;;;;;;;;;;;;5014036;28;1910;-66
2022/03/20 00:20:55;;;;;;;;;;;;;;;;;;5014770;28;1117;-68
2022/03/20 00:23:23;;;;;;;;;;;;;;;;;;5014222;28;1070;-67
2022/03/20 00:25:50;;;;;;;;;;;;;;;;;;5012984;28;1374;-69
2022/03/20 00:28:17;;;;;;;;;;;;;;;;;;5013689;28;1035;-68
2022/03/20 00:30:43;;;;;;;;;;;;;;;;;;5015128;28;1129;-67
2022/03/20 00:33:10;;;;;;;;;;;;;;;;;;5013526;28;1443;-67
2022/03/20 00:35:36;;;;;;;;;;;;;;;;;;5014136;28;1301;-67
2022/03/20 00:38:04;;;;;;;;;;;;;;;;;;5013842;28;1915;-67
2022/03/20 00:40:30;;;;;;;;;;;;;;;;;;5014123;28;951;-67
2022/03/20 00:42:57;;;;;;;;;;;;;;;;;;5013957;28;1122;-65
2022/03/20 00:45:24;;;;;;;;;;;;;;;;;;5013543;28;1254;-67
2022/03/20 00:47:50;;;;;;;;;;;;;;;;;;5013183;28;1161;-67
2022/03/20 00:50:16;;;;;;;;;;;;;;;;;;5013511;28;805;-66
2022/03/20 00:52:42;;;;;;;;;;;;;;;;;;5013924;28;1121;-67
2022/03/20 00:55:10;;;;;;;;;;;;;;;;;;5013579;28;1375;-64
2022/03/20 00:57:36;;;;;;;;;;;;;;;;;;5013595;28;1002;-65
2022/03/20 01:00:03;;;;;;;;;;;;;;;;;;5012420;28;1914;-66
2022/03/20 01:02:29;;;;;;;;;;;;;;;;;;5013068;28;1069;-65
2022/03/20 01:04:55;;;;;;;;;;;;;;;;;;5013473;28;1394;-65
2022/03/20 01:07:21;;;;;;;;;;;;;;;;;;5012909;28;1003;-67
2022/03/20 01:09:48;;;;;;;;;;;;;;;;;;5013518;28;1073;-66
2022/03/20 01:12:15;;;;;;;;;;;;;;;;;;5013079;28;943;-67
2022/03/20 01:14:41;;;;;;;;;;;;;;;;;;5013159;28;809;-67
2022/03/20 01:17:08;;;;;;;;;;;;;;;;;;5012815;28;931;-67
2022/03/20 01:19:34;;;;;;;;;;;;;;;;;;5012912;28;1922;-67
2022/03/20 01:22:00;;;;;;;;;;;;;;;;;;5012723;28;800;-67
2022/03/20 01:24:28;;;;;;;;;;;;;;;;;;5012932;28;1096;-66
2022/03/20 01:26:54;;;;;;;;;;;;;;;;;;5012632;28;1310;-67
2022/03/20 01:29:22;;;;;;;;;;;;;;;;;;5012772;28;797;-66
2022/03/20 01:31:49;;;;;;;;;;;;;;;;;;5012737;28;887;-65
2022/03/20 01:34:15;;;;;;;;;;;;;;;;;;5012842;28;872;-67
2022/03/20 01:36:42;;;;;;;;;;;;;;;;;;5012373;28;1282;-67
2022/03/20 01:39:08;;;;;;;;;;;;;;;;;;5010459;28;2434;-66
2022/03/20 01:41:34;;;;;;;;;;;;;;;;;;5012584;28;1332;-67
2022/03/20 01:44:01;;;;;;;;;;;;;;;;;;5012508;28;1062;-66
2022/03/20 01:46:29;;;;;;;;;;;;;;;;;;5012118;28;1324;-68
2022/03/20 01:48:55;;;;;;;;;;;;;;;;;;5011889;28;1628;-68
2022/03/20 01:52:10;;;;;;;;;;;;;;;;;;5012472;28;1133;-67
2022/03/20 01:54:10;;;;;;;;;;;;;;;;;;5011952;28;2041;-67
2022/03/20 01:56:38;;;;;;;;;;;;;;;;;;5012132;28;1310;-67
2022/03/20 01:59:04;;;;;;;;;;;;;;;;;;5012034;28;1975;-67
2022/03/20 02:01:33;;;;;;;;;;;;;;;;;;5012225;28;1077;-68
2022/03/20 02:03:59;;;;;;;;;;;;;;;;;;5012298;28;1053;-67
2022/03/20 02:06:26;;;;;;;;;;;;;;;;;;5010554;28;1622;-67
2022/03/20 02:08:53;;;;;;;;;;;;;;;;;;5012165;28;789;-67
2022/03/20 02:11:19;;;;;;;;;;;;;;;;;;5011779;28;971;-68
2022/03/20 02:13:46;;;;;;;;;;;;;;;;;;5010927;28;1018;-69
2022/03/20 02:16:12;;;;;;;;;;;;;;;;;;5011419;28;1379;-67
2022/03/20 02:18:40;;;;;;;;;;;;;;;;;;5012013;28;2035;-67
2022/03/20 02:21:07;;;;;;;;;;;;;;;;;;5011689;28;1074;-69
2022/03/20 02:23:34;;;;;;;;;;;;;;;;;;5012021;28;864;-67
2022/03/20 02:26:03;;;;;;;;;;;;;;;;;;5012080;28;1391;-67
2022/03/20 02:28:29;;;;;;;;;;;;;;;;;;5011694;28;1097;-67
2022/03/20 02:30:55;;;;;;;;;;;;;;;;;;5011510;28;1495;-66
2022/03/20 02:33:23;;;;;;;;;;;;;;;;;;5011261;28;975;-67
2022/03/20 02:35:50;;;;;;;;;;;;;;;;;;5011535;28;1349;-68
2022/03/20 02:38:20;;;;;;;;;;;;;;;;;;5011075;28;844;-67
2022/03/20 02:40:46;;;;;;;;;;;;;;;;;;5011582;28;1970;-67
2022/03/20 02:43:13;;;;;;;;;;;;;;;;;;5011499;28;1148;-67
2022/03/20 02:45:39;;;;;;;;;;;;;;;;;;5011353;28;1293;-68
2022/03/20 02:48:06;;;;;;;;;;;;;;;;;;5011026;28;1017;-68
2022/03/20 02:50:33;;;;;;;;;;;;;;;;;;5011203;28;1078;-67
2022/03/20 02:53:01;;;;;;;;;;;;;;;;;;5011127;28;719;-66
2022/03/20 02:55:28;;;;;;;;;;;;;;;;;;5011317;28;1321;-67
2022/03/20 02:57:55;;;;;;;;;;;;;;;;;;5010789;28;816;-67
2022/03/20 03:00:24;;;;;;;;;;;;;;;;;;5010952;28;1914;-66
2022/03/20 03:02:51;;;;;;;;;;;;;;;;;;5011200;28;757;-67
2022/03/20 03:05:18;;;;;;;;;;;;;;;;;;5010867;28;1406;-68
2022/03/20 03:13:14;;;;;;;;;;;;;;;;;;5010828;28;990;-68
2022/03/20 03:15:40;;;;;;;;;;;;;;;;;;5010675;28;1451;-66
2022/03/20 03:18:06;;;;;;;;;;;;;;;;;;5011756;28;1073;-67
2022/03/20 03:20:33;;;;;;;;;;;;;;;;;;5010684;28;1979;-67
2022/03/20 03:22:59;;;;;;;;;;;;;;;;;;5010478;28;1090;-67
2022/03/20 03:25:25;;;;;;;;;;;;;;;;;;5010290;28;1330;-67
2022/03/20 03:27:53;;;;;;;;;;;;;;;;;;5010210;28;1089;-67
2022/03/20 03:30:19;;;;;;;;;;;;;;;;;;5010802;28;1066;-67
2022/03/20 03:32:46;;;;;;;;;;;;;;;;;;5010578;28;1010;-67
2022/03/20 03:37:54;;;;;;;;;;;;;;;;;;5001423;28;1102;-67
2022/03/20 03:40:20;;;;;;;;;;;;;;;;;;5010366;28;1977;-66
2022/03/20 03:42:46;;;;;;;;;;;;;;;;;;5010608;28;844;-66
2022/03/20 03:45:14;;;;;;;;;;;;;;;;;;5010150;28;1313;-68
2022/03/20 03:47:41;;;;;;;;;;;;;;;;;;5010474;28;891;-66
2022/03/20 03:50:08;;;;;;;;;;;;;;;;;;5010741;28;837;-68
2022/03/20 03:52:34;;;;;;;;;;;;;;;;;;5010584;28;1055;-67
2022/03/20 03:55:00;;;;;;;;;;;;;;;;;;5010403;28;1330;-68
2022/03/20 03:57:27;;;;;;;;;;;;;;;;;;5010156;28;864;-67
2022/03/20 03:59:54;;;;;;;;;;;;;;;;;;5010466;28;1969;-67
2022/03/20 04:02:21;;;;;;;;;;;;;;;;;;5010348;28;943;-66
2022/03/20 04:04:47;;;;;;;;;;;;;;;;;;5010317;28;1331;-67
2022/03/20 04:07:16;;;;;;;;;;;;;;;;;;5010020;28;863;-67
2022/03/20 04:09:42;;;;;;;;;;;;;;;;;;5010374;28;1186;-68
2022/03/20 04:12:09;;;;;;;;;;;;;;;;;;5010248;28;916;-67
2022/03/20 04:14:35;;;;;;;;;;;;;;;;;;5010135;28;880;-67
2022/03/20 04:17:03;;;;;;;;;;;;;;;;;;5010186;28;1287;-67
2022/03/20 04:19:31;;;;;;;;;;;;;;;;;;5008516;28;1914;-66
2022/03/20 04:21:57;;;;;;;;;;;;;;;;;;5010008;28;1058;-67
2022/03/20 04:24:23;;;;;;;;;;;;;;;;;;5010295;28;1065;-66
2022/03/20 04:26:49;;;;;;;;;;;;;;;;;;5009748;28;1357;-67
2022/03/20 04:29:16;;;;;;;;;;;;;;;;;;5008411;28;1503;-67
2022/03/20 04:31:42;;;;;;;;;;;;;;;;;;5010211;28;1061;-68
2022/03/20 04:34:08;;;;;;;;;;;;;;;;;;5010150;28;959;-67
2022/03/20 04:36:35;;;;;;;;;;;;;;;;;;5011904;28;1297;-67
2022/03/20 04:39:03;;;;;;;;;;;;;;;;;;5013365;28;1922;-67
2022/03/20 04:41:29;;;;;;;;;;;;;;;;;;5013833;28;895;-68
2022/03/20 04:43:55;;;;;;;;;;;;;;;;;;5013732;28;1118;-68
2022/03/20 04:46:21;;;;;;;;;;;;;;;;;;5013096;28;1379;-68
2022/03/20 04:59:41;;;;;;;;;;;;;;;;;;5013442;28;1981;-67
2022/03/20 05:02:07;;;;;;;;;;;;;;;;;;5013462;28;845;-68
2022/03/20 05:04:33;;;;;;;;;;;;;;;;;;5013303;28;1145;-67
2022/03/20 05:06:59;;;;;;;;;;;;;;;;;;5013005;28;1324;-67
2022/03/20 05:14:56;;;;;;;;;;;;;;;;;;5012549;28;1460;-66
2022/03/20 05:17:22;;;;;;;;;;;;;;;;;;5012729;28;983;-67
2022/03/20 05:19:49;;;;;;;;;;;;;;;;;;5012887;28;1973;-67
2022/03/20 05:22:15;;;;;;;;;;;;;;;;;;5012728;28;1121;-67
2022/03/20 05:24:43;;;;;;;;;;;;;;;;;;5013056;28;888;-67
2022/03/20 05:27:09;;;;;;;;;;;;;;;;;;5012596;28;963;-67
2022/03/20 05:29:35;;;;;;;;;;;;;;;;;;5012923;28;1074;-68
2022/03/20 05:32:01;;;;;;;;;;;;;;;;;;5012489;28;872;-67
2022/03/20 05:34:28;;;;;;;;;;;;;;;;;;5006964;28;1720;-68
2022/03/20 05:36:56;;;;;;;;;;;;;;;;;;5010285;28;1467;-68
2022/03/20 05:39:22;;;;;;;;;;;;;;;;;;5012087;28;1973;-69
2022/03/20 05:41:51;;;;;;;;;;;;;;;;;;5012518;28;1380;-68
2022/03/20 05:44:18;;;;;;;;;;;;;;;;;;5012321;28;1086;-67
2022/03/20 05:46:46;;;;;;;;;;;;;;;;;;5011700;28;1313;-67
2022/03/20 05:49:12;;;;;;;;;;;;;;;;;;5012365;28;1066;-67
2022/03/20 05:51:38;;;;;;;;;;;;;;;;;;5012161;28;1011;-67
2022/03/20 05:54:04;;;;;;;;;;;;;;;;;;5012516;28;1427;-67
2022/03/20 05:59:16;;;;;;;;;;;;;;;;;;5011295;28;1599;-65
2022/03/20 06:01:42;;;;;;;;;;;;;;;;;;5011918;28;1906;-66
2022/03/20 06:04:09;;;;;;;;;;;;;;;;;;5011799;28;2247;-68
2022/03/20 06:06:35;;;;;;;;;;;;;;;;;;5009773;28;1266;-67
2022/03/20 06:09:02;;;;;;;;;;;;;;;;;;5011489;28;1595;-67
2022/03/20 06:11:28;;;;;;;;;;;;;;;;;;5011687;28;1662;-67
2022/03/20 06:13:55;;;;;;;;;;;;;;;;;;5011661;28;1003;-69
2022/03/20 06:16:22;;;;;;;;;;;;;;;;;;5010907;28;1617;-68
2022/03/20 06:18:49;;;;;;;;;;;;;;;;;;5011471;28;1590;-68
2022/03/20 06:21:16;;;;;;;;;;;;;;;;;;5011574;28;1978;-68
2022/03/20 06:23:44;;;;;;;;;;;;;;;;;;5011379;28;1567;-67
2022/03/20 06:26:11;;;;;;;;;;;;;;;;;;5009043;28;1575;-69
2022/03/20 06:28:40;;;;;;;;;;;;;;;;;;5010402;28;1587;-69
2022/03/20 06:31:09;;;;;;;;;;;;;;;;;;5007922;28;1614;-69
2022/03/20 06:33:37;;;;;;;;;;;;;;;;;;5000577;28;1614;-70
2022/03/20 06:36:03;;;;;;;;;;;;;;;;;;5004610;28;1598;-66
2022/03/20 06:38:30;;;;;;;;;;;;;;;;;;4999834;28;1244;-69
2022/03/20 06:40:56;;;;;;;;;;;;;;;;;;4991610;28;1918;-69
2022/03/20 06:43:23;;;;;;;;;;;;;;;;;;5010369;28;1646;-69
2022/03/20 06:45:50;;;;;;;;;;;;;;;;;;5009888;28;1598;-68
2022/03/20 06:48:16;;;;;;;;;;;;;;;;;;5010171;28;1669;-68
2022/03/20 06:50:43;;;;;;;;;;;;;;;;;;5010608;28;1796;-68
2022/03/20 06:53:11;;;;;;;;;;;;;;;;;;5010582;28;1629;-68
2022/03/20 06:55:37;;;;;;;;;;;;;;;;;;5011089;28;1386;-68
2022/03/20 06:58:03;;;;;;;;;;;;;;;;;;5006780;28;1590;-69
2022/03/20 07:00:30;;;;;;;;;;;;;;;;;;5010784;28;1923;-67
2022/03/20 07:02:58;;;;;;;;;;;;;;;;;;5010705;28;1662;-69
2022/03/20 07:05:24;;;;;;;;;;;;;;;;;;5010917;28;1467;-70
2022/03/20 07:07:52;;;;;;;;;;;;;;;;;;5010452;28;1566;-68
2022/03/20 07:10:19;;;;;;;;;;;;;;;;;;5010669;28;1673;-68
2022/03/20 07:12:46;;;;;;;;;;;;;;;;;;5010642;28;1583;-67
2022/03/20 07:15:12;;;;;;;;;;;;;;;;;;5009924;28;1657;-68
2022/03/20 07:17:38;;;;;;;;;;;;;;;;;;5010509;28;1657;-68
2022/03/20 07:20:09;;;;;;;;;;;;;;;;;;5010564;28;1915;-69
2022/03/20 07:22:35;;;;;;;;;;;;;;;;;;5009614;28;1700;-70
2022/03/20 07:30:29;;;;;;;;;;;;;;;;;;5010495;28;1673;-70
2022/03/20 07:32:55;;;;;;;;;;;;;;;;;;5009532;28;1724;-68
2022/03/20 07:35:21;;;;;;;;;;;;;;;;;;4998580;28;1649;-70
2022/03/20 07:37:47;;;;;;;;;;;;;;;;;;5003459;28;1535;-70
2022/03/20 07:40:15;;;;;;;;;;;;;;;;;;5007673;28;1923;-70
2022/03/20 07:42:41;;;;;;;;;;;;;;;;;;5008090;28;1942;-70
2022/03/20 07:45:08;;;;;;;;;;;;;;;;;;5008067;28;1543;-70
2022/03/20 07:47:34;;;;;;;;;;;;;;;;;;5008200;28;1626;-71
2022/03/20 07:50:00;;;;;;;;;;;;;;;;;;5008322;28;1810;-71
2022/03/20 07:52:27;;;;;;;;;;;;;;;;;;5007795;28;1544;-70
2022/03/20 07:54:54;;;;;;;;;;;;;;;;;;5003947;28;1651;-69
2022/03/20 07:57:22;;;;;;;;;;;;;;;;;;5008091;28;1555;-70
2022/03/20 07:59:48;;;;;;;;;;;;;;;;;;5008335;28;1618;-70
2022/03/20 08:02:14;;;;;;;;;;;;;;;;;;5008214;28;1980;-70
2022/03/20 08:04:40;;;;;;;;;;;;;;;;;;5007814;28;1566;-69
2022/03/20 08:07:07;;;;;;;;;;;;;;;;;;5008399;28;1547;-70
2022/03/20 08:09:33;;;;;;;;;;;;;;;;;;5010427;28;1554;-70
2022/03/20 08:12:00;;;;;;;;;;;;;;;;;;5014311;28;1559;-68
2022/03/20 08:14:27;;;;;;;;;;;;;;;;;;5014133;28;1649;-67
2022/03/20 08:16:54;;;;;;;;;;;;;;;;;;5013463;28;1579;-68
2022/03/20 08:19:23;;;;;;;;;;;;;;;;;;5014121;28;1641;-71
2022/03/20 08:21:49;;;;;;;;;;;;;;;;;;5013802;28;1911;-67
2022/03/20 08:24:16;;;;;;;;;;;;;;;;;;5014155;28;1144;-68
2022/03/20 08:26:42;;;;;;;;;;;;;;;;;;5013302;28;1579;-68
2022/03/20 08:29:10;;;;;;;;;;;;;;;;;;5012793;28;1689;-67
2022/03/20 08:31:38;;;;;;;;;;;;;;;;;;5012425;28;1586;-67
2022/03/20 08:34:05;;;;;;;;;;;;;;;;;;5013678;28;1645;-68
2022/03/20 08:36:32;;;;;;;;;;;;;;;;;;5012687;28;1931;-68
2022/03/20 08:38:58;;;;;;;;;;;;;;;;;;5013890;28;1058;-68
2022/03/20 08:41:24;;;;;;;;;;;;;;;;;;5013189;28;1914;-67
2022/03/20 08:43:50;;;;;;;;;;;;;;;;;;5013757;28;1045;-68
2022/03/20 08:46:17;;;;;;;;;;;;;;;;;;5013115;28;1678;-67
2022/03/20 08:48:44;;;;;;;;;;;;;;;;;;5013020;28;1298;-67
2022/03/20 08:51:10;;;;;;;;;;;;;;;;;;5003405;28;1358;-69
2022/03/20 08:53:37;;;;;;;;;;;;;;;;;;5003222;28;1830;-69
2022/03/20 08:56:03;;;;;;;;;;;;;;;;;;5003672;28;1393;-69
2022/03/20 08:58:29;;;;;;;;;;;;;;;;;;5004252;28;1270;-69
2022/03/20 09:00:57;;;;;;;;;;;;;;;;;;5002962;28;2354;-69
2022/03/20 09:03:23;;;;;;;;;;;;;;;;;;5006988;28;1283;-68
2022/03/20 09:05:51;;;;;;;;;;;;;;;;;;5013147;28;1360;-69
2022/03/20 09:08:17;;;;;;;;;;;;;;;;;;5012973;28;969;-68
2022/03/20 09:10:43;;;;;;;;;;;;;;;;;;5012959;28;1078;-68
2022/03/20 09:13:09;;;;;;;;;;;;;;;;;;5013375;28;948;-68
2022/03/20 09:15:36;;;;;;;;;;;;;;;;;;5012997;28;1451;-67
2022/03/20 09:20:52;;;;;;;;;;;;;;;;;;5020617;28;1988;-68
2022/03/20 09:23:19;;;;;;;;;;;;;;;;;;5032576;28;896;-70
2022/03/20 09:25:45;;;;;;;;;;;;;;;;;;5032627;28;1085;-70
2022/03/20 09:28:11;;;;;;;;;;;;;;;;;;5024147;28;1324;-70
2022/03/20 09:30:38;;;;;;;;;;;;;;;;;;5013257;28;1114;-67
2022/03/20 09:33:05;;;;;;;;;;;;;;;;;;5012860;28;1121;-68
2022/03/20 09:35:31;;;;;;;;;;;;;;;;;;5013108;28;1069;-67
2022/03/20 09:37:59;;;;;;;;;;;;;;;;;;5012564;28;1416;-69
2022/03/20 09:40:25;;;;;;;;;;;;;;;;;;5012972;28;911;-68
2022/03/20 09:42:52;;;;;;;;;;;;;;;;;;5012929;28;1918;-69
2022/03/20 09:45:19;;;;;;;;;;;;;;;;;;5013275;28;816;-69
2022/03/20 09:47:46;;;;;;;;;;;;;;;;;;5012572;28;1397;-70
2022/03/20 09:50:13;;;;;;;;;;;;;;;;;;5012600;28;1125;-69
2022/03/20 09:52:40;;;;;;;;;;;;;;;;;;5012745;28;768;-68
2022/03/20 09:55:08;;;;;;;;;;;;;;;;;;5012091;28;903;-69
2022/03/20 09:57:34;;;;;;;;;;;;;;;;;;5012397;28;1779;-69
2022/03/20 10:00:01;;;;;;;;;;;;;;;;;;5012850;28;1125;-68
2022/03/20 10:02:28;;;;;;;;;;;;;;;;;;5013184;28;1980;-68
2022/03/20 10:04:55;;;;;;;;;;;;;;;;;;5011510;28;1477;-70
2022/03/20 10:07:22;;;;;;;;;;;;;;;;;;5012460;28;1393;-69
2022/03/20 10:09:59;;;;;;;;;;;;;;;;;;5012297;28;900;-69
2022/03/20 10:12:32;;;;;;;;;;;;;;;;;;5012033;28;1944;-68
2022/03/20 10:14:58;;;;;;;;;;;;;;;;;;5011728;28;1085;-69
2022/03/20 10:17:25;;;;;;;;;;;;;;;;;;5011996;28;1386;-70
2022/03/20 10:19:51;;;;;;;;;;;;;;;;;;5012109;28;943;-69
2022/03/20 10:22:17;;;;;;;;;;;;;;;;;;5012020;28;1922;-69
2022/03/20 10:24:47;;;;;;;;;;;;;;;;;;5012291;28;867;-69
2022/03/20 10:27:16;;;;;;;;;;;;;;;;;;5011314;28;1435;-70
2022/03/20 10:29:51;;;;;;;;;;;;;;;;;;5011988;28;835;-69
2022/03/20 10:32:17;;;;;;;;;;;;;;;;;;5011429;28;1109;-69
2022/03/20 10:34:48;;;;;;;;;;;;;;;;;;5011155;28;793;-69
2022/03/20 10:37:14;;;;;;;;;;;;;;;;;;5011044;28;1484;-70
2022/03/20 10:39:42;;;;;;;;;;;;;;;;;;5012055;28;739;-70
2022/03/20 10:42:09;;;;;;;;;;;;;;;;;;5011592;28;1915;-69
2022/03/20 10:44:35;;;;;;;;;;;;;;;;;;5011738;28;1121;-69
2022/03/20 10:47:05;;;;;;;;;;;;;;;;;;5011268;28;1287;-69
2022/03/20 10:49:31;;;;;;;;;;;;;;;;;;5011242;28;867;-70
2022/03/20 10:52:02;;;;;;;;;;;;;;;;;;5011714;28;773;-70
2022/03/20 10:54:38;;;;;;;;;;;;;;;;;;5011445;28;1074;-69
2022/03/20 10:57:06;;;;;;;;;;;;;;;;;;5011915;28;1425;-69
2022/03/20 10:59:32;;;;;;;;;;;;;;;;;;5011936;28;927;-68
2022/03/20 11:01:59;;;;;;;;;;;;;;;;;;5011244;28;1911;-69
2022/03/20 11:04:28;;;;;;;;;;;;;;;;;;5011388;28;857;-68
2022/03/20 11:06:55;;;;;;;;;;;;;;;;;;5010744;28;1324;-68
2022/03/20 11:09:21;;;;;;;;;;;;;;;;;;5011467;28;727;-69
2022/03/20 11:11:49;;;;;;;;;;;;;;;;;;5011203;28;1057;-68
2022/03/20 11:14:18;;;;;;;;;;;;;;;;;;5011127;28;899;-68
2022/03/20 11:16:44;;;;;;;;;;;;;;;;;;5010907;28;1132;-69
2022/03/20 11:19:11;;;;;;;;;;;;;;;;;;5010102;28;1338;-69
2022/03/20 11:21:40;;;;;;;;;;;;;;;;;;5011211;28;1975;-69
2022/03/20 11:24:06;;;;;;;;;;;;;;;;;;5010669;28;1066;-69
2022/03/20 11:26:33;;;;;;;;;;;;;;;;;;5009304;28;1137;-70
2022/03/20 11:29:00;;;;;;;;;;;;;;;;;;5010815;28;1326;-69
2022/03/20 11:31:26;;;;;;;;;;;;;;;;;;5011135;28;1073;-70
2022/03/20 11:33:54;;;;;;;;;;;;;;;;;;5009561;28;1773;-69
2022/03/20 11:36:20;;;;;;;;;;;;;;;;;;5010330;28;1074;-68
2022/03/20 11:41:40;;;;;;;;;;;;;;;;;;5087895;27;1254;-68
2022/03/20 11:44:14;;;;;;;;;;;;;;;;;;5087854;28;1137;-68
2022/03/20 11:46:44;;;;;;;;;;;;;;;;;;5087720;28;1056;-68
2022/03/20 11:49:20;;;;;;;;;;;;;;;;;;5088758;28;1443;-68
2022/03/20 11:51:54;;;;;;;;;;;;;;;;;;5086402;28;1042;-68
2022/03/20 11:54:22;;;;;;;;;;;;;;;;;;5087743;28;1257;-68
2022/03/20 11:56:49;;;;;;;;;;;;;;;;;;5087713;28;954;-68
2022/03/20 11:59:30;;;;;;;;;;;;;;;;;;5087097;28;1265;-68
2022/03/20 12:02:01;;;;;;;;;;;;;;;;;;5087695;28;1699;-68
2022/03/20 12:04:28;;;;;;;;;;;;;;;;;;5087669;28;904;-69
2022/03/20 12:07:08;;;;;;;;;;;;;;;;;;5087413;28;1313;-66
2022/03/20 12:09:45;;;;;;;;;;;;;;;;;;5087645;28;1061;-69
2022/03/20 12:12:19;;;;;;;;;;;;;;;;;;5087305;28;950;-68
2022/03/20 12:14:47;;;;;;;;;;;;;;;;;;5087611;28;1081;-68
2022/03/20 12:17:13;;;;;;;;;;;;;;;;;;5086989;28;1317;-68
2022/03/20 12:19:42;;;;;;;;;;;;;;;;;;5087134;28;1913;-68
2022/03/20 12:22:14;;;;;;;;;;;;;;;;;;5087438;28;874;-68
2022/03/20 12:24:49;;;;;;;;;;;;;;;;;;5087272;28;617;-68
2022/03/20 12:27:36;;;;;;;;;;;;;;;;;;5086611;28;1364;-68
2022/03/20 12:30:30;;;;;;;;;;;;;;;;;;5087510;28;958;-68
2022/03/20 12:32:58;;;;;;;;;;;;;;;;;;5077232;28;1117;-69
2022/03/20 12:35:24;;;;;;;;;;;;;;;;;;5074289;28;1330;-70
2022/03/20 12:37:52;;;;;;;;;;;;;;;;;;5072462;28;1348;-68
2022/03/20 12:40:18;;;;;;;;;;;;;;;;;;5081646;28;1910;-68
2022/03/20 12:42:55;;;;;;;;;;;;;;;;;;5093468;28;1406;-69
2022/03/20 12:45:22;;;;;;;;;;;;;;;;;;5094135;28;1206;-69
2022/03/20 12:47:53;;;;;;;;;;;;;;;;;;5094590;28;1588;-68
2022/03/20 12:50:20;;;;;;;;;;;;;;;;;;5099990;28;1396;-69
2022/03/20 12:52:46;;;;;;;;;;;;;;;;;;5095312;28;1101;-68
2022/03/20 12:55:12;;;;;;;;;;;;;;;;;;5075055;28;991;-67
2022/03/20 12:57:39;;;;;;;;;;;;;;;;;;5093359;28;1382;-69
2022/03/20 13:00:09;;;;;;;;;;;;;;;;;;5093759;28;1918;-69
2022/03/20 13:02:37;;;;;;;;;;;;;;;;;;5093503;28;1006;-68
2022/03/20 13:05:10;;;;;;;;;;;;;;;;;;5091729;28;1898;-68
2022/03/20 13:07:38;;;;;;;;;;;;;;;;;;5093145;28;1294;-69
2022/03/20 13:10:04;;;;;;;;;;;;;;;;;;5093115;28;919;-68
2022/03/20 13:12:45;;;;;;;;;;;;;;;;;;5093375;28;749;-70
2022/03/20 13:15:12;;;;;;;;;;;;;;;;;;5092541;28;1336;-69
2022/03/20 13:17:40;;;;;;;;;;;;;;;;;;5092137;28;1902;-69
2022/03/20 13:20:15;;;;;;;;;;;;;;;;;;5092918;28;1922;-67
2022/03/20 13:22:42;;;;;;;;;;;;;;;;;;5093076;28;1132;-70
2022/03/20 13:25:14;;;;;;;;;;;;;;;;;;5092760;28;1002;-67
2022/03/20 13:27:40;;;;;;;;;;;;;;;;;;5092574;28;1420;-69
2022/03/20 13:30:07;;;;;;;;;;;;;;;;;;5084670;28;1226;-68
2022/03/20 13:32:33;;;;;;;;;;;;;;;;;;5080405;28;1267;-69
2022/03/20 13:35:01;;;;;;;;;;;;;;;;;;5072394;28;1140;-66
2022/03/20 13:37:27;;;;;;;;;;;;;;;;;;5072065;28;1297;-69
2022/03/20 13:39:54;;;;;;;;;;;;;;;;;;5072288;28;1939;-69
2022/03/20 13:42:20;;;;;;;;;;;;;;;;;;5072598;28;995;-68
2022/03/20 13:44:48;;;;;;;;;;;;;;;;;;5072429;28;962;-68
2022/03/20 13:47:14;;;;;;;;;;;;;;;;;;5072088;28;1392;-69
2022/03/20 13:49:40;;;;;;;;;;;;;;;;;;5072253;28;1164;-69
2022/03/20 13:52:09;;;;;;;;;;;;;;;;;;5072238;28;876;-68
2022/03/20 13:54:39;;;;;;;;;;;;;;;;;;5056780;28;1199;-69
2022/03/20 13:57:07;;;;;;;;;;;;;;;;;;5086555;28;1336;-69
2022/03/20 13:59:47;;;;;;;;;;;;;;;;;;5092582;28;913;-68
2022/03/20 14:02:13;;;;;;;;;;;;;;;;;;5070878;28;1977;-69
2022/03/20 14:04:40;;;;;;;;;;;;;;;;;;5072086;28;1246;-68
2022/03/20 14:07:06;;;;;;;;;;;;;;;;;;5071398;28;1324;-68
2022/03/20 14:09:34;;;;;;;;;;;;;;;;;;5070723;28;1787;-69
2022/03/20 14:12:01;;;;;;;;;;;;;;;;;;5071832;28;1130;-69
2022/03/20 14:14:40;;;;;;;;;;;;;;;;;;5071773;28;1069;-69
2022/03/20 14:17:07;;;;;;;;;;;;;;;;;;5071820;28;1342;-68
2022/03/20 14:19:43;;;;;;;;;;;;;;;;;;5072689;28;1061;-69
2022/03/20 14:22:10;;;;;;;;;;;;;;;;;;5072642;28;1910;-69
2022/03/20 14:24:47;;;;;;;;;;;;;;;;;;5072416;28;1065;-69
2022/03/20 14:27:13;;;;;;;;;;;;;;;;;;5070992;28;1408;-69
2022/03/20 14:40:53;;;;;;;;;;;;;;;;;;5091569;28;1983;-68
2022/03/20 14:43:24;;;;;;;;;;;;;;;;;;5091720;28;855;-69
2022/03/20 14:45:50;;;;;;;;;;;;;;;;;;5091178;28;702;-69
2022/03/20 14:48:19;;;;;;;;;;;;;;;;;;5091202;28;1379;-72
2022/03/20 14:50:45;;;;;;;;;;;;;;;;;;5073144;28;1212;-67
2022/03/20 14:53:20;;;;;;;;;;;;;;;;;;5091315;28;885;-68
2022/03/20 14:55:46;;;;;;;;;;;;;;;;;;5091013;28;874;-68
2022/03/20 14:58:14;;;;;;;;;;;;;;;;;;5090830;28;1302;-69
2022/03/20 15:00:40;;;;;;;;;;;;;;;;;;5090894;28;1918;-67
2022/03/20 15:03:07;;;;;;;;;;;;;;;;;;5091020;28;1105;-69
2022/03/20 15:05:33;;;;;;;;;;;;;;;;;;5091143;28;946;-68
2022/03/20 15:13:24;;;;;;;;;;;;;;;;;;5090859;28;800;-66
2022/03/20 15:15:50;;;;;;;;;;;;;;;;;;5090554;28;1073;-69
2022/03/20 15:18:16;;;;;;;;;;;;;;;;;;5088172;28;1379;-68
2022/03/20 15:23:48;;;;;;;;;;;;;;;;;;5020703;28;1366;-71
2022/03/20 15:26:14;;;;;;;;;;;;;;;;;;5019758;28;1224;-70
2022/03/20 15:28:42;;;;;;;;;;;;;;;;;;5020911;28;1236;-69
2022/03/20 15:31:09;;;;;;;;;;;;;;;;;;5021152;28;1504;-69
2022/03/20 15:33:39;;;;;;;;;;;;;;;;;;5009040;28;1331;-69
2022/03/20 15:36:05;;;;;;;;;;;;;;;;;;5020580;28;1330;-72
2022/03/20 15:38:32;;;;;;;;;;;;;;;;;;5007522;28;1319;-70
2022/03/20 15:40:58;;;;;;;;;;;;;;;;;;5014226;28;1985;-68
2022/03/20 15:43:24;;;;;;;;;;;;;;;;;;5010267;28;1062;-73
2022/03/20 15:45:51;;;;;;;;;;;;;;;;;;5010592;28;951;-72
2022/03/20 15:48:18;;;;;;;;;;;;;;;;;;5010169;28;1117;-69
2022/03/20 15:50:45;;;;;;;;;;;;;;;;;;5010554;28;822;-70
2022/03/20 15:53:12;;;;;;;;;;;;;;;;;;5010507;28;1365;-69
2022/03/20 15:55:38;;;;;;;;;;;;;;;;;;5010424;28;1109;-70
2022/03/20 15:58:05;;;;;;;;;;;;;;;;;;5010118;28;721;-70
2022/03/20 16:00:32;;;;;;;;;;;;;;;;;;5010444;28;1914;-70
2022/03/20 16:03:00;;;;;;;;;;;;;;;;;;5010459;28;1271;-70
2022/03/20 16:05:26;;;;;;;;;;;;;;;;;;5025451;28;1117;-70
2022/03/20 16:07:52;;;;;;;;;;;;;;;;;;5029759;28;1065;-69
2022/03/20 16:10:19;;;;;;;;;;;;;;;;;;5030117;28;798;-69
2022/03/20 16:12:45;;;;;;;;;;;;;;;;;;5029934;28;1298;-70
2022/03/20 16:15:11;;;;;;;;;;;;;;;;;;5029274;28;1448;-69
2022/03/20 16:17:38;;;;;;;;;;;;;;;;;;5010949;28;1153;-69
2022/03/20 16:20:07;;;;;;;;;;;;;;;;;;5010267;28;1270;-69
2022/03/20 16:28:29;;;;;;;;;;;;;;;;;;5009963;28;1922;-69
2022/03/20 16:30:48;;;;;;;;;;;;;;;;;;5013893;28;1128;-68
2022/03/20 16:33:14;;;;;;;;;;;;;;;;;;5013620;28;1372;-68
2022/03/20 16:35:41;;;;;;;;;;;;;;;;;;4995742;28;1306;-68
2022/03/20 16:38:07;;;;;;;;;;;;;;;;;;5013339;28;1110;-68
2022/03/20 16:40:34;;;;;;;;;;;;;;;;;;5014149;28;1621;-69
2022/03/20 16:43:00;;;;;;;;;;;;;;;;;;5015315;28;2095;-69
2022/03/20 16:45:26;;;;;;;;;;;;;;;;;;5029806;28;906;-69
2022/03/20 16:47:52;;;;;;;;;;;;;;;;;;5011334;28;1362;-68
2022/03/20 16:50:19;;;;;;;;;;;;;;;;;;5030976;28;924;-66
2022/03/20 16:52:47;;;;;;;;;;;;;;;;;;5031020;28;1373;-69
2022/03/20 16:55:13;;;;;;;;;;;;;;;;;;5030583;28;1023;-70
2022/03/20 16:57:39;;;;;;;;;;;;;;;;;;5030770;28;801;-70
2022/03/20 17:00:07;;;;;;;;;;;;;;;;;;5030885;28;1134;-69
2022/03/20 17:02:34;;;;;;;;;;;;;;;;;;5030944;28;2026;-69
2022/03/20 17:05:00;;;;;;;;;;;;;;;;;;5013068;28;1118;-69
2022/03/20 17:07:26;;;;;;;;;;;;;;;;;;5030684;28;935;-69
2022/03/20 17:09:53;;;;;;;;;;;;;;;;;;5030893;28;1085;-69
2022/03/20 17:12:22;;;;;;;;;;;;;;;;;;5030533;28;1357;-69
2022/03/20 17:14:48;;;;;;;;;;;;;;;;;;5031014;28;994;-69
2022/03/20 17:17:16;;;;;;;;;;;;;;;;;;5030634;28;999;-69
2022/03/20 17:19:42;;;;;;;;;;;;;;;;;;5030878;28;1074;-69
2022/03/20 17:22:08;;;;;;;;;;;;;;;;;;5030368;28;1978;-69
2022/03/20 17:24:34;;;;;;;;;;;;;;;;;;5021799;28;1117;-69
2022/03/20 17:27:02;;;;;;;;;;;;;;;;;;5016377;28;1207;-68
2022/03/20 17:29:29;;;;;;;;;;;;;;;;;;5010401;28;1125;-69
2022/03/20 17:31:55;;;;;;;;;;;;;;;;;;5029183;28;1298;-70
2022/03/20 17:34:21;;;;;;;;;;;;;;;;;;5012798;28;1149;-69
2022/03/20 17:36:48;;;;;;;;;;;;;;;;;;5030413;28;781;-69
2022/03/20 17:39:14;;;;;;;;;;;;;;;;;;5030203;28;804;-70
2022/03/20 17:41:44;;;;;;;;;;;;;;;;;;5030222;28;1914;-69
2022/03/20 17:44:12;;;;;;;;;;;;;;;;;;5030058;28;902;-68
2022/03/20 17:46:39;;;;;;;;;;;;;;;;;;5027731;28;905;-67
2022/03/20 17:49:06;;;;;;;;;;;;;;;;;;5030022;28;911;-70
2022/03/20 17:51:34;;;;;;;;;;;;;;;;;;5030211;28;1373;-67
2022/03/20 17:54:00;;;;;;;;;;;;;;;;;;5029909;28;1125;-67
2022/03/20 17:56:26;;;;;;;;;;;;;;;;;;5029639;28;903;-68
2022/03/20 17:58:54;;;;;;;;;;;;;;;;;;5030081;28;1074;-68
2022/03/20 18:01:21;;;;;;;;;;;;;;;;;;5029656;28;1991;-70
2022/03/20 18:09:15;;;;;;;;;;;;;;;;;;5029718;28;1046;-68
2022/03/20 18:11:41;;;;;;;;;;;;;;;;;;5030184;28;1386;-69
2022/03/20 18:14:08;;;;;;;;;;;;;;;;;;5030029;28;931;-68
2022/03/20 18:16:35;;;;;;;;;;;;;;;;;;5029708;28;1082;-68